Time;durP1;ratioP1;P1;durP2;ratioP2;P2;SDS_P1;SDS_P2;PMS_P1;PMS_P2;Temp;Humidity;BMP_temperature;BMP_pressure;BME280_temperature;BME280_humidity;BME280_pressure;Samples;Min_cycle;Max_cycle;Signal;HPM_P1;HPM_P2
2024/03/21 00:00:13;;;;;;;41.42;36.97;;;11.80;80.20;;;;;;5040954;27;114522;-58
2024/03/21 00:02:46;;;;;;;41.88;36.88;;;11.70;79.90;;;;;;5031618;27;113116;-58
2024/03/21 00:05:16;;;;;;;40.00;35.22;;;11.60;80.00;;;;;;5043892;27;112955;-59
2024/03/21 00:07:45;;;;;;;40.90;36.53;;;11.50;80.80;;;;;;5047562;27;112766;-59
2024/03/21 00:10:13;;;;;;;36.70;32.78;;;11.30;80.70;;;;;;5046051;27;113177;-58
2024/03/21 00:12:39;;;;;;;39.75;35.47;;;11.30;81.00;;;;;;5027246;27;115475;-58
2024/03/21 00:15:05;;;;;;;38.10;34.03;;;11.30;80.90;;;;;;5028702;27;113070;-59
2024/03/21 00:17:32;;;;;;;40.63;35.10;;;11.20;81.50;;;;;;5047312;27;113047;-58
2024/03/21 00:19:58;;;;;;;41.03;35.85;;;11.30;81.80;;;;;;5045697;27;114354;-59
2024/03/21 00:22:23;;;;;;;39.55;35.25;;;11.40;81.20;;;;;;5046154;27;113301;-58
2024/03/21 00:24:49;;;;;;;40.00;35.78;;;11.30;80.90;;;;;;5047159;27;112696;-58
2024/03/21 00:27:14;;;;;;;42.17;37.22;;;11.40;81.10;;;;;;5047147;27;112778;-58
2024/03/21 00:29:40;;;;;;;41.85;37.25;;;11.50;80.70;;;;;;5046049;27;113858;-58
2024/03/21 00:32:06;;;;;;;38.83;34.55;;;11.40;80.90;;;;;;5045748;27;112601;-58
2024/03/21 00:34:32;;;;;;;40.92;36.50;;;11.40;80.80;;;;;;5046695;27;112485;-59
2024/03/21 00:36:58;;;;;;;40.60;36.25;;;11.30;80.70;;;;;;5047026;27;112650;-59
2024/03/21 00:39:23;;;;;;;42.03;37.40;;;11.40;80.50;;;;;;5045735;27;113377;-58
2024/03/21 00:41:50;;;;;;;38.88;34.78;;;11.50;80.60;;;;;;5046024;27;113211;-58
2024/03/21 00:44:16;;;;;;;41.92;37.08;;;11.40;80.50;;;;;;5046695;27;112761;-59
2024/03/21 00:46:42;;;;;;;41.67;36.17;;;11.40;80.30;;;;;;5046995;27;112650;-58
2024/03/21 00:49:11;;;;;;;43.47;37.58;;;11.40;80.40;;;;;;5045573;27;113754;-58
2024/03/21 00:51:38;;;;;;;39.40;35.30;;;11.40;80.70;;;;;;5045626;27;114301;-58
2024/03/21 00:54:05;;;;;;;39.08;34.85;;;11.30;81.10;;;;;;5046709;27;112882;-58
2024/03/21 00:56:31;;;;;;;44.45;36.70;;;11.30;80.50;;;;;;5046517;27;112966;-59
2024/03/21 00:58:58;;;;;;;39.47;35.30;;;11.30;80.50;;;;;;5045688;27;113664;-59
2024/03/21 01:01:25;;;;;;;40.65;35.17;;;11.30;80.80;;;;;;5045404;27;113381;-59
2024/03/21 01:03:51;;;;;;;41.95;35.95;;;11.30;80.40;;;;;;5032181;27;112764;-58
2024/03/21 01:06:16;;;;;;;39.70;35.40;;;11.20;80.20;;;;;;5048008;27;112713;-59
2024/03/21 01:08:42;;;;;;;37.08;33.20;;;11.20;80.80;;;;;;5054608;27;115237;-59
2024/03/21 01:11:09;;;;;;;37.33;33.45;;;11.10;80.60;;;;;;5057895;27;113132;-59
2024/03/21 01:13:35;;;;;;;38.55;34.40;;;11.10;80.50;;;;;;5056316;27;112874;-59
2024/03/21 01:16:01;;;;;;;40.63;35.13;;;11.00;80.70;;;;;;5052544;27;113036;-59
2024/03/21 01:18:35;;;;;;;39.60;33.72;;;11.10;80.80;;;;;;5059680;27;113261;-58
2024/03/21 01:21:05;;;;;;;38.38;33.83;;;11.10;80.40;;;;;;5018660;27;116269;-58
2024/03/21 01:23:32;;;;;;;38.88;34.17;;;11.10;80.40;;;;;;5058256;27;113342;-58
2024/03/21 01:25:58;;;;;;;39.80;35.17;;;11.10;80.50;;;;;;5057633;27;113126;-59
2024/03/21 01:28:24;;;;;;;39.42;35.17;;;11.10;80.60;;;;;;5048726;27;114576;-59
2024/03/21 01:30:50;;;;;;;38.05;33.90;;;11.10;80.60;;;;;;5048702;27;114811;-59
2024/03/21 01:33:16;;;;;;;39.95;35.85;;;11.10;80.60;;;;;;5049803;27;113050;-58
2024/03/21 01:35:42;;;;;;;40.25;35.15;;;11.00;80.80;;;;;;5049441;27;112784;-58
2024/03/21 01:38:08;;;;;;;39.15;35.03;;;10.90;81.00;;;;;;5048927;27;113740;-59
2024/03/21 01:40:36;;;;;;;40.58;36.20;;;10.90;80.60;;;;;;5048479;27;113787;-58
2024/03/21 01:43:02;;;;;;;39.80;35.00;;;10.80;81.20;;;;;;5049561;27;112983;-59
2024/03/21 01:45:28;;;;;;;37.88;33.53;;;10.80;81.10;;;;;;5049260;27;112694;-59
2024/03/21 01:47:58;;;;;;;36.42;32.50;;;10.90;80.80;;;;;;5048318;27;113871;-58
2024/03/21 01:50:25;;;;;;;36.63;32.72;;;10.90;80.90;;;;;;5048292;27;113859;-58
2024/03/21 01:52:51;;;;;;;39.70;33.63;;;10.90;80.60;;;;;;5049230;27;112526;-58
2024/03/21 01:55:17;;;;;;;39.03;34.28;;;10.90;80.70;;;;;;5049533;27;112691;-58
2024/03/21 01:57:45;;;;;;;37.53;33.45;;;10.80;80.60;;;;;;5048250;27;113800;-58
2024/03/21 02:00:11;;;;;;;38.63;34.63;;;10.80;81.00;;;;;;5048350;27;112629;-59
2024/03/21 02:02:37;;;;;;;43.25;35.65;;;10.80;81.40;;;;;;5039518;27;112910;-58
2024/03/21 02:05:03;;;;;;;40.17;34.20;;;10.90;81.00;;;;;;5044553;27;112783;-60
2024/03/21 02:07:31;;;;;;;42.00;36.20;;;10.90;80.30;;;;;;5048530;27;114334;-58
2024/03/21 02:09:57;;;;;;;41.45;35.47;;;10.80;80.50;;;;;;5047821;27;112862;-58
2024/03/21 02:12:50;;;;;;;37.22;32.67;;;10.70;80.40;;;;;;5047989;27;113006;-58
2024/03/21 02:15:15;;;;;;;42.25;35.00;;;10.40;81.20;;;;;;5045493;27;112679;-58
2024/03/21 02:17:41;;;;;;;40.95;36.58;;;10.50;81.40;;;;;;5048187;27;113563;-59
2024/03/21 02:20:08;;;;;;;41.05;36.58;;;10.40;81.70;;;;;;5029495;27;113806;-59
2024/03/21 02:22:37;;;;;;;41.33;36.85;;;10.50;81.80;;;;;;5047488;27;113233;-58
2024/03/21 02:25:04;;;;;;;45.15;40.28;;;10.40;82.20;;;;;;5048721;27;112763;-58
2024/03/21 02:27:31;;;;;;;42.17;37.00;;;10.50;82.20;;;;;;5048014;27;113494;-58
2024/03/21 02:29:57;;;;;;;41.58;36.47;;;10.40;82.00;;;;;;5047885;27;112591;-58
2024/03/21 02:32:23;;;;;;;41.17;36.10;;;10.40;82.10;;;;;;5048821;27;113477;-58
2024/03/21 02:34:48;;;;;;;39.60;35.25;;;10.60;82.00;;;;;;5048719;27;112705;-60
2024/03/21 02:37:14;;;;;;;38.38;34.28;;;10.30;81.70;;;;;;5047762;27;113158;-59
2024/03/21 02:39:41;;;;;;;39.13;34.95;;;10.30;81.90;;;;;;5029331;27;114433;-58
2024/03/21 02:42:07;;;;;;;44.13;37.75;;;10.30;81.90;;;;;;5048350;27;112649;-58
2024/03/21 02:44:33;;;;;;;45.97;40.92;;;10.30;82.20;;;;;;5048639;27;112852;-58
2024/03/21 02:46:58;;;;;;;43.55;38.85;;;10.30;82.50;;;;;;5047561;27;113284;-58
2024/03/21 02:49:24;;;;;;;45.55;40.05;;;10.20;82.70;;;;;;5047385;27;112718;-58
2024/03/21 02:51:49;;;;;;;45.67;40.58;;;10.30;82.60;;;;;;5048596;27;112721;-59
2024/03/21 02:54:15;;;;;;;51.30;42.90;;;10.40;82.50;;;;;;5048516;27;112818;-58
2024/03/21 02:56:41;;;;;;;47.03;40.35;;;10.40;82.80;;;;;;5047605;27;113314;-58
2024/03/21 02:59:06;;;;;;;43.13;38.30;;;10.30;82.70;;;;;;5046919;27;113719;-59
2024/03/21 03:01:32;;;;;;;48.50;42.78;;;10.30;82.50;;;;;;5047393;27;112630;-58
2024/03/21 03:03:57;;;;;;;44.38;39.70;;;10.40;82.70;;;;;;5035094;27;113018;-58
2024/03/21 03:06:23;;;;;;;43.55;38.63;;;10.40;82.50;;;;;;5047917;27;113289;-58
2024/03/21 03:08:49;;;;;;;45.95;40.35;;;10.40;82.40;;;;;;5046670;27;114221;-59
2024/03/21 03:11:15;;;;;;;47.22;39.85;;;10.30;82.40;;;;;;5048319;27;113014;-59
2024/03/21 03:13:40;;;;;;;47.90;40.78;;;10.30;82.70;;;;;;5047780;27;113096;-58
2024/03/21 03:16:06;;;;;;;48.22;40.45;;;10.30;82.70;;;;;;5047448;27;113297;-58
2024/03/21 03:18:31;;;;;;;48.53;41.00;;;10.30;82.60;;;;;;5047145;27;113273;-59
2024/03/21 03:20:57;;;;;;;47.63;41.85;;;10.30;82.50;;;;;;5029481;27;112741;-59
2024/03/21 03:23:23;;;;;;;47.83;41.95;;;10.30;82.80;;;;;;5047706;27;112712;-58
2024/03/21 03:25:48;;;;;;;48.13;40.17;;;10.30;83.00;;;;;;5046777;27;113767;-58
2024/03/21 03:28:14;;;;;;;51.20;41.70;;;10.20;82.90;;;;;;5046853;27;112947;-58
2024/03/21 03:30:40;;;;;;;47.65;41.50;;;10.30;82.80;;;;;;5038654;27;112767;-58
2024/03/21 03:35:49;;;;;;;46.38;40.33;;;10.30;83.10;;;;;;5026805;27;112979;-58
2024/03/21 03:38:15;;;;;;;45.05;39.55;;;10.30;82.90;;;;;;5033881;27;112895;-58
2024/03/21 03:40:42;;;;;;;48.90;42.60;;;10.30;82.70;;;;;;5027702;27;112900;-59
2024/03/21 03:43:07;;;;;;;48.38;42.63;;;10.30;82.80;;;;;;5044646;27;112645;-59
2024/03/21 03:45:33;;;;;;;47.33;42.00;;;10.20;82.90;;;;;;5046697;27;113642;-58
2024/03/21 03:47:58;;;;;;;48.10;42.65;;;10.20;83.00;;;;;;5032087;27;113757;-58
2024/03/21 03:50:24;;;;;;;52.05;46.35;;;10.10;83.20;;;;;;5047657;27;112809;-58
2024/03/21 03:52:50;;;;;;;48.58;42.55;;;10.20;83.20;;;;;;5047440;27;112698;-58
2024/03/21 03:55:16;;;;;;;48.33;39.78;;;10.20;83.00;;;;;;5046632;27;113178;-58
2024/03/21 03:57:41;;;;;;;50.10;40.25;;;10.10;82.90;;;;;;5046563;27;113205;-57
2024/03/21 04:00:10;;;;;;;44.95;39.88;;;10.20;82.80;;;;;;5047271;27;112626;-59
2024/03/21 04:02:37;;;;;;;51.00;42.97;;;10.10;82.40;;;;;;5047415;27;112741;-58
2024/03/21 04:05:04;;;;;;;46.95;41.53;;;10.10;82.70;;;;;;5031440;27;114394;-58
2024/03/21 04:07:30;;;;;;;44.83;39.75;;;10.20;82.70;;;;;;5046816;27;114343;-59
2024/03/21 04:09:56;;;;;;;43.47;37.83;;;10.10;82.30;;;;;;5047233;27;112821;-58
2024/03/21 04:12:21;;;;;;;42.22;37.85;;;10.20;82.40;;;;;;5046384;27;112933;-58
2024/03/21 04:14:51;;;;;;;43.85;39.05;;;10.30;81.90;;;;;;5016867;28;115062;-58
2024/03/21 04:17:17;;;;;;;54.38;42.40;;;10.30;81.80;;;;;;5043505;27;114158;-59
2024/03/21 04:19:43;;;;;;;51.25;44.45;;;10.40;81.70;;;;;;5046713;27;112656;-58
2024/03/21 04:22:09;;;;;;;45.85;40.85;;;10.50;81.90;;;;;;5046665;27;112921;-58
2024/03/21 04:24:36;;;;;;;50.15;42.05;;;10.60;82.00;;;;;;5046277;27;113816;-58
2024/03/21 04:27:02;;;;;;;50.00;41.65;;;10.60;82.10;;;;;;5045844;27;114250;-58
2024/03/21 04:29:28;;;;;;;51.13;43.95;;;10.70;81.80;;;;;;5046935;27;112945;-58
2024/03/21 04:31:53;;;;;;;53.05;44.03;;;10.80;81.80;;;;;;5046806;27;112682;-58
2024/03/21 04:34:19;;;;;;;53.55;44.78;;;10.80;82.00;;;;;;5045998;27;113249;-58
2024/03/21 04:36:45;;;;;;;51.88;43.25;;;10.70;82.10;;;;;;5045887;27;112807;-59
2024/03/21 04:39:10;;;;;;;59.97;46.40;;;10.80;82.30;;;;;;5031382;27;114743;-58
2024/03/21 04:41:36;;;;;;;56.58;45.53;;;10.90;82.10;;;;;;5046658;27;112733;-58
2024/03/21 04:44:01;;;;;;;53.20;44.40;;;10.90;82.00;;;;;;5045599;27;114460;-58
2024/03/21 04:46:27;;;;;;;50.22;43.17;;;10.90;81.80;;;;;;5048863;27;113960;-58
2024/03/21 04:48:53;;;;;;;54.15;45.28;;;11.10;81.30;;;;;;5050011;27;112799;-58
2024/03/21 04:51:18;;;;;;;58.75;48.67;;;11.10;81.30;;;;;;5050367;27;112716;-58
2024/03/21 04:53:44;;;;;;;53.85;46.53;;;11.10;81.70;;;;;;5049285;27;114582;-59
2024/03/21 04:56:10;;;;;;;60.72;49.85;;;11.10;81.60;;;;;;5049363;27;113268;-58
2024/03/21 04:58:35;;;;;;;66.72;53.08;;;11.10;81.40;;;;;;5050156;27;112519;-58
2024/03/21 05:01:01;;;;;;;61.53;49.05;;;11.30;81.50;;;;;;5049901;27;112798;-58
2024/03/21 05:03:26;;;;;;;54.13;46.88;;;11.30;81.20;;;;;;5049011;27;113214;-59
2024/03/21 05:05:52;;;;;;;65.63;51.45;;;11.40;81.10;;;;;;5048977;27;113817;-58
2024/03/21 05:08:18;;;;;;;63.03;52.10;;;11.40;80.90;;;;;;5050435;27;113073;-58
2024/03/21 05:10:44;;;;;;;60.78;51.13;;;11.40;81.30;;;;;;5050669;27;114139;-58
2024/03/21 05:13:09;;;;;;;67.78;53.80;;;11.40;81.40;;;;;;5048925;27;113429;-58
2024/03/21 05:15:35;;;;;;;63.35;52.97;;;11.30;81.60;;;;;;5049290;27;112695;-60
2024/03/21 05:18:01;;;;;;;65.07;53.33;;;11.20;81.80;;;;;;5050015;27;112872;-58
2024/03/21 05:20:27;;;;;;;70.25;56.72;;;11.30;82.10;;;;;;5049760;27;112659;-58
2024/03/21 05:22:53;;;;;;;72.10;56.65;;;11.40;81.80;;;;;;5048531;27;115018;-59
2024/03/21 05:25:19;;;;;;;72.13;58.38;;;11.30;81.90;;;;;;5048184;27;113829;-59
2024/03/21 05:27:45;;;;;;;71.70;56.63;;;11.30;82.10;;;;;;5049860;27;112901;-57
2024/03/21 05:30:10;;;;;;;71.75;57.47;;;11.40;82.00;;;;;;5049634;27;112982;-58
2024/03/21 05:32:36;;;;;;;68.22;54.90;;;11.40;81.90;;;;;;5048734;27;113192;-58
2024/03/21 05:35:02;;;;;;;66.15;55.05;;;11.40;82.00;;;;;;5049009;27;113371;-59
2024/03/21 05:37:28;;;;;;;69.85;55.15;;;11.40;81.70;;;;;;5048702;27;112734;-57
2024/03/21 05:39:53;;;;;;;69.65;56.85;;;11.60;81.40;;;;;;5017805;27;112727;-58
2024/03/21 05:42:19;;;;;;;73.57;58.13;;;11.50;81.30;;;;;;5049024;27;113584;-58
2024/03/21 05:44:44;;;;;;;72.13;57.53;;;11.50;81.70;;;;;;5048694;27;112824;-58
2024/03/21 05:47:21;;;;;;;72.25;58.42;;;11.50;81.90;;;;;;5031161;27;112742;-58
2024/03/21 05:49:47;;;;;;;70.95;56.95;;;11.60;81.70;;;;;;5049022;27;112740;-58
2024/03/21 05:52:13;;;;;;;67.45;55.55;;;11.50;81.90;;;;;;5048820;27;113612;-58
2024/03/21 05:54:38;;;;;;;73.70;58.20;;;11.60;81.80;;;;;;5048322;27;112603;-58
2024/03/21 05:57:04;;;;;;;70.38;59.00;;;11.50;81.60;;;;;;5049535;27;112830;-58
2024/03/21 05:59:30;;;;;;;77.13;58.63;;;11.50;81.90;;;;;;5031082;27;113036;-58
2024/03/21 06:01:55;;;;;;;72.03;58.15;;;11.60;81.80;;;;;;5029863;27;114695;-58
2024/03/21 06:04:21;;;;;;;73.10;57.80;;;11.70;81.50;;;;;;5048237;27;113668;-58
2024/03/21 06:06:47;;;;;;;67.63;57.22;;;11.80;81.30;;;;;;5050071;27;113013;-58
2024/03/21 06:09:14;;;;;;;69.15;57.17;;;11.80;80.80;;;;;;5049265;27;112911;-58
2024/03/21 06:11:40;;;;;;;69.03;56.50;;;11.80;81.00;;;;;;5048151;27;113363;-58
2024/03/21 06:14:05;;;;;;;68.82;55.53;;;11.90;80.80;;;;;;5047628;27;113995;-58
2024/03/21 06:16:32;;;;;;;64.40;54.88;;;11.80;80.80;;;;;;5030515;27;112560;-58
2024/03/21 06:18:57;;;;;;;65.15;54.97;;;11.90;80.30;;;;;;5030630;27;113265;-58
2024/03/21 06:21:23;;;;;;;64.53;54.58;;;12.00;80.00;;;;;;5047943;27;113005;-58
2024/03/21 06:23:49;;;;;;;68.45;54.33;;;12.00;79.90;;;;;;5047934;27;114617;-58
2024/03/21 06:26:14;;;;;;;65.70;54.20;;;11.90;80.30;;;;;;5049053;27;112782;-58
2024/03/21 06:28:40;;;;;;;60.22;52.70;;;11.90;80.30;;;;;;5048914;27;112821;-59
2024/03/21 06:31:07;;;;;;;65.57;55.58;;;12.10;80.10;;;;;;5048099;27;113409;-59
2024/03/21 06:33:33;;;;;;;67.40;53.55;;;12.10;80.20;;;;;;5047725;27;113067;-59
2024/03/21 06:35:59;;;;;;;66.30;54.45;;;12.20;80.00;;;;;;5048483;27;112806;-58
2024/03/21 06:38:25;;;;;;;71.03;57.63;;;12.30;79.40;;;;;;5039969;27;112780;-58
2024/03/21 06:40:50;;;;;;;73.38;57.75;;;12.20;79.50;;;;;;5023725;27;116700;-58
2024/03/21 06:43:17;;;;;;;64.97;54.47;;;12.30;79.30;;;;;;5047343;27;113843;-59
2024/03/21 06:45:43;;;;;;;70.10;54.80;;;12.40;79.30;;;;;;5048569;27;112865;-58
2024/03/21 06:48:09;;;;;;;66.93;57.60;;;12.50;78.70;;;;;;5048600;27;113266;-58
2024/03/21 06:50:34;;;;;;;72.97;56.80;;;12.50;78.90;;;;;;5047469;27;114375;-59
2024/03/21 06:53:00;;;;;;;67.82;55.75;;;12.40;79.70;;;;;;5047478;27;112655;-58
2024/03/21 06:55:26;;;;;;;74.47;55.58;;;12.60;79.40;;;;;;5048671;27;112800;-59
2024/03/21 06:57:56;;;;;;;68.00;55.63;;;12.70;79.00;;;;;;5048252;27;113115;-58
2024/03/21 07:00:27;;;;;;;67.97;56.25;;;12.90;78.50;;;;;;5047406;27;113176;-58
2024/03/21 07:02:55;;;;;;;69.97;55.13;;;12.90;78.10;;;;;;5047161;27;112671;-58
2024/03/21 07:05:21;;;;;;;67.90;55.20;;;13.00;77.40;;;;;;5034285;27;112698;-59
2024/03/21 07:07:46;;;;;;;68.28;57.10;;;13.10;77.90;;;;;;5048312;27;112871;-57
2024/03/21 07:10:12;;;;;;;64.60;54.08;;;13.20;77.80;;;;;;5047198;27;113152;-58
2024/03/21 07:12:38;;;;;;;66.72;55.17;;;13.40;77.40;;;;;;5046499;27;112622;-58
2024/03/21 07:15:04;;;;;;;67.60;55.60;;;13.50;76.80;;;;;;5048123;27;112685;-58
2024/03/21 07:17:30;;;;;;;66.03;53.88;;;13.60;76.50;;;;;;5048336;27;112748;-58
2024/03/21 07:19:56;;;;;;;68.95;55.55;;;13.70;76.00;;;;;;5046962;27;114949;-58
2024/03/21 07:22:23;;;;;;;63.78;53.75;;;13.90;75.60;;;;;;5047146;27;112586;-58
2024/03/21 07:24:48;;;;;;;66.25;54.95;;;14.00;75.30;;;;;;5047922;27;112758;-58
2024/03/21 07:27:15;;;;;;;65.47;55.00;;;14.00;75.00;;;;;;5047671;27;112829;-58
2024/03/21 07:29:41;;;;;;;66.00;54.17;;;14.20;74.90;;;;;;5046841;27;114505;-58
2024/03/21 07:32:07;;;;;;;69.15;55.50;;;14.20;75.20;;;;;;5046787;27;113095;-59
2024/03/21 07:34:34;;;;;;;67.05;55.50;;;14.20;75.10;;;;;;5047787;27;112480;-59
2024/03/21 07:37:00;;;;;;;68.78;55.25;;;14.20;74.90;;;;;;5048021;27;112963;-58
2024/03/21 07:39:26;;;;;;;67.75;55.92;;;14.30;74.90;;;;;;5040232;27;114251;-57
2024/03/21 07:41:51;;;;;;;71.10;55.25;;;14.30;75.00;;;;;;5033539;27;113175;-58
2024/03/21 07:44:18;;;;;;;71.60;56.90;;;14.40;74.40;;;;;;5031974;27;112793;-58
2024/03/21 07:46:44;;;;;;;67.38;54.70;;;14.50;74.10;;;;;;5031369;27;113037;-58
2024/03/21 07:49:10;;;;;;;66.10;53.33;;;14.60;74.10;;;;;;5027698;27;114085;-58
2024/03/21 07:51:36;;;;;;;65.20;53.63;;;14.70;73.50;;;;;;5032749;27;113473;-60
2024/03/21 07:54:02;;;;;;;63.30;52.13;;;14.90;72.80;;;;;;5027595;27;112695;-59
2024/03/21 07:56:28;;;;;;;70.70;55.95;;;15.20;71.90;;;;;;5026605;27;113062;-58
2024/03/21 07:58:54;;;;;;;63.53;51.65;;;15.50;70.80;;;;;;5041683;27;114252;-58
2024/03/21 08:01:23;;;;;;;64.93;51.45;;;15.80;70.20;;;;;;5034967;27;113394;-58
2024/03/21 08:03:48;;;;;;;65.25;52.65;;;16.20;69.30;;;;;;5043995;27;112965;-58
2024/03/21 08:06:16;;;;;;;70.90;52.80;;;16.20;68.80;;;;;;5037526;27;113074;-58
2024/03/21 08:08:43;;;;;;;65.43;52.08;;;16.10;68.70;;;;;;5045332;27;113920;-58
2024/03/21 08:11:08;;;;;;;68.28;53.25;;;16.20;68.60;;;;;;5045535;27;112617;-58
2024/03/21 08:13:34;;;;;;;69.55;55.90;;;16.10;68.50;;;;;;5036355;27;113021;-59
2024/03/21 08:16:00;;;;;;;64.93;53.88;;;16.00;68.80;;;;;;5044705;27;112803;-59
2024/03/21 08:18:25;;;;;;;67.38;55.15;;;16.10;69.30;;;;;;5043147;27;113534;-57
2024/03/21 08:20:51;;;;;;;68.78;54.70;;;16.00;69.30;;;;;;5044894;27;112875;-58
2024/03/21 08:23:18;;;;;;;66.82;55.63;;;15.90;69.70;;;;;;5046495;27;114012;-58
2024/03/21 08:25:44;;;;;;;67.25;55.97;;;16.30;68.80;;;;;;5046350;27;112832;-59
2024/03/21 08:28:11;;;;;;;63.78;53.80;;;16.50;68.00;;;;;;5041036;27;115379;-58
2024/03/21 08:30:43;;;;;;;67.20;55.08;;;16.70;67.40;;;;;;5045777;27;112949;-59
2024/03/21 08:33:09;;;;;;;;;;;16.60;67.80;;;;;;5046686;27;112721;-59
2024/03/21 08:35:35;;;;;;;64.72;52.97;;;16.30;68.20;;;;;;5048530;27;112782;-58
2024/03/21 08:38:01;;;;;;;63.72;53.67;;;15.90;68.90;;;;;;5040189;27;113735;-58
2024/03/21 08:40:26;;;;;;;68.18;54.45;;;15.80;69.30;;;;;;5036708;27;112787;-59
2024/03/21 08:42:52;;;;;;;71.18;55.92;;;16.00;69.20;;;;;;5044622;27;113051;-59
2024/03/21 08:45:19;;;;;;;69.05;54.15;;;16.30;68.40;;;;;;5046793;27;112642;-58
2024/03/21 08:47:45;;;;;;;66.55;56.22;;;16.50;67.80;;;;;;5045011;27;114614;-58
2024/03/21 08:50:11;;;;;;;64.47;53.10;;;16.90;66.80;;;;;;5044071;27;114120;-58
2024/03/21 08:52:37;;;;;;;67.55;52.83;;;17.10;66.20;;;;;;5039532;27;112989;-58
2024/03/21 08:55:03;;;;;;;64.82;51.55;;;17.40;65.10;;;;;;5045783;27;112826;-58
2024/03/21 08:57:31;;;;;;;56.00;49.70;;;17.40;65.00;;;;;;5045052;27;114436;-57
2024/03/21 08:59:57;;;;;;;60.63;49.38;;;17.90;64.50;;;;;;5036272;27;113922;-58
2024/03/21 09:02:22;;;;;;;53.95;44.72;;;18.00;63.10;;;;;;5045805;27;112680;-59
2024/03/21 09:04:48;;;;;;;55.85;44.53;;;17.90;64.40;;;;;;5046007;27;113011;-59
2024/03/21 09:07:14;;;;;;;57.45;45.17;;;18.10;64.10;;;;;;5027122;27;114817;-59
2024/03/21 09:09:39;;;;;;;56.20;46.70;;;18.30;63.30;;;;;;5045073;27;113247;-58
2024/03/21 09:12:06;;;;;;;53.10;45.78;;;18.00;63.60;;;;;;5045815;27;112619;-59
2024/03/21 09:14:32;;;;;;;54.55;45.30;;;18.50;63.70;;;;;;5046189;27;112897;-58
2024/03/21 09:16:57;;;;;;;53.80;45.13;;;18.80;61.70;;;;;;5044907;27;113110;-60
2024/03/21 09:19:24;;;;;;;52.85;45.60;;;18.60;62.50;;;;;;5045208;27;113007;-59
2024/03/21 09:21:50;;;;;;;53.47;44.75;;;19.10;61.90;;;;;;5045692;27;113822;-58
2024/03/21 09:24:16;;;;;;;51.40;44.13;;;19.70;60.10;;;;;;5045974;27;112994;-59
2024/03/21 09:26:42;;;;;;;51.17;43.15;;;19.60;60.10;;;;;;5044701;27;114356;-59
2024/03/21 09:29:08;;;;;;;46.33;41.33;;;19.60;60.00;;;;;;5044460;27;112874;-58
2024/03/21 09:31:34;;;;;;;46.20;41.38;;;20.00;59.20;;;;;;5036980;27;112537;-58
2024/03/21 09:34:00;;;;;;;49.78;42.30;;;20.30;58.40;;;;;;5018887;27;112987;-56
2024/03/21 09:36:26;;;;;;;50.67;42.47;;;20.40;57.70;;;;;;5043494;27;113677;-59
2024/03/21 09:38:53;;;;;;;49.47;42.83;;;20.50;58.10;;;;;;5034058;27;112721;-58
2024/03/21 09:41:18;;;;;;;47.20;42.08;;;20.90;56.90;;;;;;5047453;27;112848;-58
2024/03/21 09:43:44;;;;;;;47.50;42.03;;;21.20;56.30;;;;;;5048972;27;112740;-58
2024/03/21 09:46:17;;;;;;;49.00;43.67;;;20.90;57.10;;;;;;5038353;27;113580;-58
2024/03/21 09:48:43;;;;;;;49.10;43.92;;;20.90;55.50;;;;;;5042056;27;113116;-58
2024/03/21 09:51:21;;;;;;;47.83;42.53;;;21.10;55.80;;;;;;5045192;27;112955;-57
2024/03/21 09:53:48;;;;;;;48.58;42.90;;;21.60;55.60;;;;;;5045864;27;112839;-59
2024/03/21 09:56:16;;;;;;;48.55;43.25;;;22.30;53.90;;;;;;5046717;27;113159;-58
2024/03/21 09:58:42;;;;;;;48.80;43.55;;;22.10;53.90;;;;;;5047107;27;114510;-58
2024/03/21 10:01:34;;;;;;;49.30;43.42;;;22.60;52.60;;;;;;5047701;27;112662;-57
2024/03/21 10:04:00;;;;;;;49.83;44.72;;;22.90;51.80;;;;;;5029747;27;114309;-59
2024/03/21 10:06:45;;;;;;;46.60;40.75;;;22.90;51.60;;;;;;5033958;27;114714;-58
2024/03/21 10:09:12;;;;;;;45.83;41.22;;;23.30;51.30;;;;;;5034153;27;112918;-59
2024/03/21 10:11:39;;;;;;;45.83;40.72;;;23.80;50.40;;;;;;5035576;27;112914;-59
2024/03/21 10:14:04;;;;;;;45.75;40.88;;;23.40;50.60;;;;;;5039808;27;113195;-58
2024/03/21 10:16:31;;;;;;;42.72;38.42;;;23.00;51.20;;;;;;5038421;27;114668;-58
2024/03/21 10:19:00;;;;;;;42.72;38.25;;;22.80;52.50;;;;;;5037281;27;112823;-58
2024/03/21 10:21:26;;;;;;;44.13;39.38;;;22.80;51.20;;;;;;5032714;27;112551;-58
2024/03/21 10:24:05;;;;;;;43.72;39.40;;;22.30;52.40;;;;;;5042251;27;112809;-58
2024/03/21 10:26:32;;;;;;;43.92;39.22;;;21.70;54.00;;;;;;5031467;27;113453;-58
2024/03/21 10:28:58;;;;;;;41.55;37.15;;;21.20;55.30;;;;;;5043240;27;113812;-58
2024/03/21 10:31:24;;;;;;;39.92;35.83;;;20.90;56.20;;;;;;5048078;27;112840;-58
2024/03/21 10:33:54;;;;;;;43.25;38.50;;;20.90;55.70;;;;;;5048209;27;114087;-58
2024/03/21 10:36:19;;;;;;;41.38;37.15;;;20.80;56.10;;;;;;5038463;27;114503;-58
2024/03/21 10:38:45;;;;;;;40.63;36.40;;;21.40;55.80;;;;;;5032699;27;113924;-58
2024/03/21 10:41:18;;;;;;;41.10;36.65;;;22.50;52.80;;;;;;5044323;27;112881;-58
2024/03/21 10:43:48;;;;;;;39.05;35.17;;;22.20;52.60;;;;;;5044398;27;112924;-59
2024/03/21 10:46:14;;;;;;;40.13;36.03;;;22.20;53.00;;;;;;5039465;27;113509;-59
2024/03/21 10:48:41;;;;;;;39.33;35.22;;;23.00;51.10;;;;;;5041462;27;112887;-58
2024/03/21 10:51:10;;;;;;;39.85;35.55;;;24.40;47.70;;;;;;5035972;27;112564;-56
2024/03/21 10:53:36;;;;;;;37.70;33.90;;;26.40;43.50;;;;;;5039973;27;112706;-58
2024/03/21 10:56:11;;;;;;;35.95;32.50;;;28.10;39.60;;;;;;5033243;27;113336;-58
2024/03/21 10:58:43;;;;;;;37.00;33.35;;;29.50;37.90;;;;;;5031638;27;113002;-58
2024/03/21 11:01:10;;;;;;;37.22;33.72;;;31.20;35.00;;;;;;5041154;27;112841;-58
2024/03/21 11:03:55;;;;;;;37.47;34.15;;;32.90;32.70;;;;;;5033174;27;112848;-58
2024/03/21 11:06:23;;;;;;;34.15;31.02;;;34.40;30.40;;;;;;5041272;27;113558;-58
2024/03/21 11:08:53;;;;;;;38.17;34.78;;;34.40;30.90;;;;;;5032505;27;114805;-59
2024/03/21 11:11:20;;;;;;;35.03;32.00;;;35.20;29.50;;;;;;5044772;27;116397;-58
2024/03/21 11:13:46;;;;;;;30.50;27.90;;;36.60;28.40;;;;;;5034706;27;112900;-59
2024/03/21 11:16:12;;;;;;;30.25;27.65;;;36.00;27.80;;;;;;5044775;27;114403;-59
2024/03/21 11:18:39;;;;;;;31.67;28.85;;;34.40;29.80;;;;;;5043545;27;114056;-59
2024/03/21 11:21:05;;;;;;;31.63;29.02;;;34.40;30.00;;;;;;5047604;27;112734;-59
2024/03/21 11:23:31;;;;;;;28.75;26.42;;;32.80;31.50;;;;;;5042339;27;112986;-59
2024/03/21 11:25:57;;;;;;;31.38;28.67;;;31.40;32.50;;;;;;5046997;27;113180;-59
2024/03/21 11:28:22;;;;;;;30.45;27.73;;;29.60;34.50;;;;;;5046252;27;113739;-59
2024/03/21 11:30:48;;;;;;;34.50;31.48;;;28.60;36.20;;;;;;5047161;27;112817;-60
2024/03/21 11:33:14;;;;;;;28.98;26.45;;;29.60;35.60;;;;;;5044757;27;112733;-59
2024/03/21 11:35:41;;;;;;;24.35;22.27;;;31.60;32.60;;;;;;5043897;27;113194;-59
2024/03/21 11:38:07;;;;;;;29.35;26.80;;;32.70;31.50;;;;;;5031598;27;114328;-59
2024/03/21 11:40:34;;;;;;;29.73;27.10;;;33.50;29.70;;;;;;5035383;27;113126;-59
2024/03/21 11:43:07;;;;;;;32.15;29.35;;;31.30;32.90;;;;;;5045675;27;112672;-59
2024/03/21 11:45:35;;;;;;;33.83;30.63;;;29.70;35.20;;;;;;5046277;27;113137;-58
2024/03/21 11:48:13;;;;;;;34.05;30.95;;;28.70;37.30;;;;;;5046205;27;113263;-59
2024/03/21 11:50:39;;;;;;;36.78;33.63;;;29.40;35.70;;;;;;5027059;27;113242;-59
2024/03/21 11:53:05;;;;;;;36.47;33.17;;;30.40;34.00;;;;;;5044193;27;112902;-58
2024/03/21 11:55:31;;;;;;;36.70;33.47;;;31.10;33.70;;;;;;5044585;27;115054;-58
2024/03/21 11:57:57;;;;;;;37.42;33.90;;;29.60;36.30;;;;;;5037464;27;113757;-58
2024/03/21 12:00:23;;;;;;;39.63;36.05;;;27.80;37.80;;;;;;5016005;27;112613;-58
2024/03/21 12:02:50;;;;;;;43.13;39.17;;;26.00;41.00;;;;;;5047077;27;112871;-58
2024/03/21 12:05:16;;;;;;;39.78;36.08;;;24.90;42.50;;;;;;5033246;27;113332;-58
2024/03/21 12:07:41;;;;;;;40.65;36.65;;;23.40;45.70;;;;;;5043083;27;113135;-59
2024/03/21 12:10:11;;;;;;;42.88;38.88;;;23.10;47.10;;;;;;5031635;27;112760;-58
2024/03/21 12:12:37;;;;;;;41.65;37.45;;;22.60;47.90;;;;;;5037211;27;112968;-58
2024/03/21 12:15:05;;;;;;;38.03;34.33;;;22.20;48.50;;;;;;5028755;27;113252;-59
2024/03/21 12:17:31;;;;;;;37.63;33.83;;;22.30;48.30;;;;;;5027210;27;113833;-58